Mijn Webcam Meer informatie Mijn Webcam


webcam richting noord-oost Meer informatie webcam facing north-east


Regen radar Meer informatie rain snow radar


Bezoek onze andere website:

Template documentation
and downloads

And another site


CBI



METAR rapporten vliegvelden

   
EHGG - Groningen/Eelde
Gewijzigd: 21-05-2018 14:55
Helder  
Helder  
   Wind: Oosten 5.1 m/s
Wind: Oosten 5.1 m/s
Temperatuur: 24°C
Dauwpunt: 9°C
Vochtigheid: 39%
Barometer: 1017 hPa
Bewolking: Helder
Zicht: More then 10 km
Bewolking: Helder
EHGG 211255Z AUTO 10010KT 040V170 9999 NCD 24/09 Q1017 NOSIG
EHMA - Schiermonnikoog
Gewijzigd: 21-05-2018 14:55
Gedeeltelijk bewolkt  
Gedeeltelijk bewolkt  
   Wind: ONO 9.3 m/s
Wind: ONO 9.3 m/s
Temperatuur: 16°C
Dauwpunt: 11°C
Vochtigheid: 72%
Barometer: 1017 hPa
Bewolking: Gedeeltelijk bewolkt
Zicht: More then 10 km
Bewolking: Gedeeltelijk bewolkt
EHMA 211255Z AUTO 07018KT 060V120 9999 NSC 16/11 Q1017 W///H///
EHMG - Terschelling
Gewijzigd: 21-05-2018 14:55
Helder  
Helder  
   Wind: Oosten 14.9 m/s
Wind: Oosten 14.9 m/s
Temperatuur: 14°C
Dauwpunt: 10°C
Vochtigheid: 77%
Barometer: 1017 hPa
Bewolking: Helder
Zicht: More then 10 km
Bewolking: Helder
EHMG 211255Z AUTO 08029KT 9999 NCD 14/10 Q1017 W///H///
EHVL - Vlieland
Gewijzigd: 21-05-2018 14:55
Helder  
Helder  
   Wind: ONO 8.7 m/s
Wind: ONO 8.7 m/s
Temperatuur: 21°C
Dauwpunt: 12°C
Vochtigheid: 57%
Barometer: 1016 hPa
Bewolking: Helder
Bewolking: Helder
EHVL 211255Z AUTO 06017KT //// // NCD 21/12 Q1016 RE// RMK CB INFO NOT AVBL
ETWM - Meppen, Germany
Gewijzigd: 21-05-2018 14:20
  
  
   Wind: Oosten 3.6 m/s<br />Gust to 3.6 m/s
Wind: Oosten 3.6 m/s
Gust to 3.6 m/s
Temperatuur: 24°C
Dauwpunt: 5°C
Vochtigheid: 29%
Barometer: 1017 hPa
Zicht: 8 km
ETWM 211220Z AUTO 10007G21KT 8000 // ////// 24/05 Q1017 ///
 

Script ontwikkeld door  Saratoga-weather.org Aangepast voor de template door  Weerstation Leuven

U vindt ons ook hier:

Het Weer Aktueel

UK Metoffice

European Weather Network

WeatherCloud

Weather Underground

Benelux Weer Netwerk

AWEKAS

WeatherlinkIP

HAMweather, WeatherForYou, PWS Weather

Apparatuur in gebruik:

Weerstation
Davis VP2 Plus

Weerprogramma
Cumulus

Weercomputer
ASUS Eee Box B202

Webleverancier
Antagonist

Davis VP2 Plus

Cumulus

ASUS Eee Box B202

Antagonist